MSR664 OEJN-HECA
Flight info
| Callsign | MSR664 |
|---|---|
| Flight time | 1h 43m |
| Altitude | 36000 |
| Route | MIGDA L677 CVO |
| Aircraft | A320/M-SDE3FGHIRWY/LB1 |
Departure
| Time | 2026-05-06 13:14 |
|---|---|
| Airport | King Abdulaziz International Airport (OEJN) |
Arrival
| Time | 2026-05-06 14:57 |
|---|---|
| Airport | Cairo International Airport (HECA) |
| Time | Latitude | Longitude | Altitude | Speed | Heading |
|---|---|---|---|---|---|
| 2026-05-06 12:43 | 21.66650 | 39.17053 | 31 ft | 0 kts | 69° |
| 2026-05-06 12:44 | 21.66725 | 39.17028 | 31 ft | 0 kts | 70° |
| 2026-05-06 13:06 | 21.66723 | 39.17022 | 30 ft | 4 kts | 70° |
| 2026-05-06 13:06 | 21.66715 | 39.16994 | 30 ft | 4 kts | 73° |
| 2026-05-06 13:06 | 21.66708 | 39.16967 | 30 ft | 4 kts | 79° |
| 2026-05-06 13:06 | 21.66704 | 39.16938 | 30 ft | 4 kts | 93° |
| 2026-05-06 13:07 | 21.66710 | 39.16914 | 30 ft | 4 kts | 143° |
| 2026-05-06 13:07 | 21.66719 | 39.16908 | 30 ft | 1 kts | 160° |
| 2026-05-06 13:10 | 21.66711 | 39.16911 | 30 ft | 5 kts | 160° |
| 2026-05-06 13:10 | 21.66645 | 39.16937 | 30 ft | 13 kts | 160° |
| 2026-05-06 13:10 | 21.66554 | 39.16973 | 30 ft | 15 kts | 160° |
| 2026-05-06 13:10 | 21.66453 | 39.17013 | 30 ft | 15 kts | 161° |
| 2026-05-06 13:11 | 21.66354 | 39.17011 | 30 ft | 12 kts | 193° |
| 2026-05-06 13:11 | 21.66295 | 39.16958 | 31 ft | 13 kts | 248° |
| 2026-05-06 13:11 | 21.66262 | 39.16862 | 31 ft | 15 kts | 250° |
| 2026-05-06 13:11 | 21.66223 | 39.16750 | 31 ft | 17 kts | 249° |
| 2026-05-06 13:12 | 21.66179 | 39.16622 | 31 ft | 19 kts | 250° |
| 2026-05-06 13:12 | 21.66142 | 39.16511 | 31 ft | 9 kts | 259° |
| 2026-05-06 13:12 | 21.66185 | 39.16465 | 30 ft | 7 kts | 341° |
| 2026-05-06 13:12 | 21.66190 | 39.16463 | 30 ft | 1 kts | 340° |
| 2026-05-06 13:13 | 21.66376 | 39.16390 | 34 ft | 62 kts | 340° |
| 2026-05-06 13:13 | 21.66968 | 39.16156 | 36 ft | 119 kts | 340° |
| 2026-05-06 13:13 | 21.67896 | 39.15790 | 37 ft | 164 kts | 340° |
| 2026-05-06 13:13 | 21.69000 | 39.15365 | 564 ft | 165 kts | 340° |
| 2026-05-06 13:14 | 21.70084 | 39.14959 | 1220 ft | 165 kts | 339° |
| 2026-05-06 13:14 | 21.71216 | 39.14517 | 1475 ft | 184 kts | 339° |
| 2026-05-06 13:14 | 21.72483 | 39.14012 | 1668 ft | 206 kts | 339° |
| 2026-05-06 13:14 | 21.73906 | 39.13441 | 1895 ft | 231 kts | 339° |
| 2026-05-06 13:15 | 21.75492 | 39.12807 | 2247 ft | 254 kts | 339° |
| 2026-05-06 13:15 | 21.77156 | 39.12141 | 2907 ft | 262 kts | 338° |
| 2026-05-06 13:15 | 21.78884 | 39.11453 | 3665 ft | 267 kts | 338° |
| 2026-05-06 13:15 | 21.80644 | 39.10756 | 4422 ft | 272 kts | 339° |
| 2026-05-06 13:16 | 21.82436 | 39.10048 | 5151 ft | 277 kts | 339° |
| 2026-05-06 13:16 | 21.84260 | 39.09327 | 5777 ft | 283 kts | 339° |
| 2026-05-06 13:16 | 21.86114 | 39.08594 | 5963 ft | 285 kts | 339° |
| 2026-05-06 13:16 | 21.87973 | 39.07857 | 6004 ft | 285 kts | 339° |
| 2026-05-06 13:17 | 21.89831 | 39.07117 | 6012 ft | 285 kts | 338° |
| 2026-05-06 13:17 | 21.91662 | 39.06310 | 6012 ft | 284 kts | 336° |
| 2026-05-06 13:17 | 21.93471 | 39.05452 | 6008 ft | 284 kts | 335° |
| 2026-05-06 13:17 | 21.95248 | 39.04586 | 6008 ft | 284 kts | 335° |
| 2026-05-06 13:18 | 21.97047 | 39.03705 | 6019 ft | 284 kts | 335° |
| 2026-05-06 13:18 | 21.98849 | 39.02828 | 6019 ft | 284 kts | 335° |
| 2026-05-06 13:18 | 22.00652 | 39.01955 | 6011 ft | 284 kts | 335° |
| 2026-05-06 13:18 | 22.02471 | 39.01079 | 6394 ft | 287 kts | 335° |
| 2026-05-06 13:19 | 22.04299 | 39.00201 | 7154 ft | 289 kts | 335° |
| 2026-05-06 13:19 | 22.06145 | 38.99317 | 7838 ft | 292 kts | 335° |
| 2026-05-06 13:19 | 22.08011 | 38.98424 | 8486 ft | 295 kts | 335° |
| 2026-05-06 13:19 | 22.09872 | 38.97534 | 9099 ft | 299 kts | 335° |
| 2026-05-06 13:20 | 22.11783 | 38.96620 | 9729 ft | 302 kts | 335° |
| 2026-05-06 13:20 | 22.13718 | 38.95694 | 10227 ft | 311 kts | 335° |
| 2026-05-06 13:20 | 22.15763 | 38.94712 | 10352 ft | 332 kts | 335° |
| 2026-05-06 13:20 | 22.17935 | 38.93669 | 10507 ft | 350 kts | 335° |
| 2026-05-06 13:21 | 22.20192 | 38.92587 | 10947 ft | 358 kts | 335° |
| 2026-05-06 13:21 | 22.22477 | 38.91496 | 11506 ft | 361 kts | 335° |
| 2026-05-06 13:21 | 22.24788 | 38.90396 | 12097 ft | 365 kts | 335° |
| 2026-05-06 13:21 | 22.27088 | 38.89299 | 12693 ft | 368 kts | 335° |
| 2026-05-06 13:22 | 22.29437 | 38.88175 | 13287 ft | 371 kts | 335° |
| 2026-05-06 13:22 | 22.31802 | 38.87041 | 13872 ft | 374 kts | 335° |
| 2026-05-06 13:22 | 22.34191 | 38.85893 | 14452 ft | 377 kts | 335° |
| 2026-05-06 13:22 | 22.36597 | 38.84735 | 15025 ft | 380 kts | 335° |
| 2026-05-06 13:23 | 22.39023 | 38.83568 | 15591 ft | 383 kts | 335° |
| 2026-05-06 13:23 | 22.41475 | 38.82391 | 16152 ft | 387 kts | 335° |
| 2026-05-06 13:23 | 22.43943 | 38.81210 | 16702 ft | 390 kts | 335° |
| 2026-05-06 13:23 | 22.46435 | 38.80013 | 17252 ft | 393 kts | 334° |
| 2026-05-06 13:24 | 22.48907 | 38.78823 | 17797 ft | 396 kts | 334° |
| 2026-05-06 13:24 | 22.51433 | 38.77607 | 18352 ft | 399 kts | 334° |
| 2026-05-06 13:24 | 22.53981 | 38.76379 | 18910 ft | 402 kts | 334° |
| 2026-05-06 13:24 | 22.56550 | 38.75139 | 19467 ft | 406 kts | 334° |
| 2026-05-06 13:25 | 22.59140 | 38.73891 | 20018 ft | 409 kts | 334° |
| 2026-05-06 13:25 | 22.61746 | 38.72635 | 20545 ft | 412 kts | 334° |
| 2026-05-06 13:25 | 22.64374 | 38.71368 | 21049 ft | 415 kts | 334° |
| 2026-05-06 13:25 | 22.66998 | 38.70141 | 21541 ft | 418 kts | 335° |
| 2026-05-06 13:26 | 22.69693 | 38.68934 | 22011 ft | 421 kts | 336° |
| 2026-05-06 13:26 | 22.72416 | 38.67744 | 22454 ft | 424 kts | 336° |
| 2026-05-06 13:26 | 22.75162 | 38.66557 | 22883 ft | 426 kts | 336° |
| 2026-05-06 13:26 | 22.77925 | 38.65357 | 23299 ft | 429 kts | 336° |
| 2026-05-06 13:27 | 22.80695 | 38.64141 | 23696 ft | 431 kts | 335° |
| 2026-05-06 13:27 | 22.83481 | 38.62908 | 24095 ft | 434 kts | 335° |
| 2026-05-06 13:27 | 22.86284 | 38.61662 | 24471 ft | 436 kts | 335° |
| 2026-05-06 13:27 | 22.89101 | 38.60408 | 24838 ft | 439 kts | 335° |
| 2026-05-06 13:28 | 22.91893 | 38.59164 | 25190 ft | 441 kts | 335° |
| 2026-05-06 13:28 | 22.94737 | 38.57896 | 25544 ft | 443 kts | 335° |
| 2026-05-06 13:28 | 22.97600 | 38.56618 | 25887 ft | 446 kts | 335° |
| 2026-05-06 13:28 | 23.00470 | 38.55335 | 26232 ft | 448 kts | 335° |
| 2026-05-06 13:29 | 23.03360 | 38.54047 | 26561 ft | 450 kts | 335° |
| 2026-05-06 13:29 | 23.06260 | 38.52757 | 26883 ft | 452 kts | 335° |
| 2026-05-06 13:29 | 23.09173 | 38.51461 | 27195 ft | 454 kts | 335° |
| 2026-05-06 13:29 | 23.12103 | 38.50157 | 27509 ft | 456 kts | 335° |
| 2026-05-06 13:30 | 23.15044 | 38.48845 | 27827 ft | 458 kts | 334° |
| 2026-05-06 13:30 | 23.17992 | 38.47527 | 28143 ft | 460 kts | 334° |
| 2026-05-06 13:30 | 23.20915 | 38.46217 | 28446 ft | 462 kts | 334° |
| 2026-05-06 13:30 | 23.23892 | 38.44888 | 28750 ft | 463 kts | 334° |
| 2026-05-06 13:31 | 23.26884 | 38.43554 | 29048 ft | 466 kts | 334° |
| 2026-05-06 13:31 | 23.29886 | 38.42216 | 29340 ft | 468 kts | 334° |
| 2026-05-06 13:31 | 23.32899 | 38.40870 | 29668 ft | 468 kts | 334° |
| 2026-05-06 13:31 | 23.35903 | 38.39524 | 30133 ft | 466 kts | 334° |
| 2026-05-06 13:32 | 23.38895 | 38.38179 | 30562 ft | 464 kts | 334° |
| 2026-05-06 13:32 | 23.41873 | 38.36838 | 30967 ft | 463 kts | 334° |
| 2026-05-06 13:32 | 23.44810 | 38.35518 | 31347 ft | 463 kts | 334° |
| 2026-05-06 13:32 | 23.47789 | 38.34180 | 31741 ft | 462 kts | 334° |
| 2026-05-06 13:33 | 23.50759 | 38.32848 | 32133 ft | 462 kts | 333° |
| 2026-05-06 13:33 | 23.53730 | 38.31516 | 32507 ft | 461 kts | 333° |
| 2026-05-06 13:33 | 23.56696 | 38.30186 | 32897 ft | 461 kts | 333° |
| 2026-05-06 13:33 | 23.59661 | 38.28855 | 33273 ft | 460 kts | 333° |
| 2026-05-06 13:34 | 23.62621 | 38.27525 | 33641 ft | 460 kts | 333° |
| 2026-05-06 13:34 | 23.65576 | 38.26193 | 34012 ft | 459 kts | 333° |
| 2026-05-06 13:34 | 23.68485 | 38.24883 | 34365 ft | 459 kts | 333° |
| 2026-05-06 13:34 | 23.71436 | 38.23554 | 34703 ft | 458 kts | 333° |
| 2026-05-06 13:35 | 23.74378 | 38.22228 | 35025 ft | 458 kts | 333° |
| 2026-05-06 13:35 | 23.77319 | 38.20901 | 35332 ft | 457 kts | 333° |
| 2026-05-06 13:35 | 23.80257 | 38.19576 | 35649 ft | 456 kts | 332° |
| 2026-05-06 13:35 | 23.83192 | 38.18254 | 35874 ft | 457 kts | 332° |
| 2026-05-06 13:36 | 23.86134 | 38.16928 | 35936 ft | 460 kts | 332° |
| 2026-05-06 13:36 | 23.92075 | 38.14235 | 35925 ft | 463 kts | 332° |
| 2026-05-06 13:37 | 23.97991 | 38.11547 | 35926 ft | 464 kts | 332° |
| 2026-05-06 13:37 | 24.03951 | 38.08848 | 35927 ft | 464 kts | 332° |
| 2026-05-06 13:38 | 24.09916 | 38.06141 | 35928 ft | 464 kts | 332° |
| 2026-05-06 13:38 | 24.15759 | 38.03213 | 35925 ft | 457 kts | 323° |
| 2026-05-06 13:39 | 24.20973 | 37.99351 | 35932 ft | 456 kts | 320° |
| 2026-05-06 13:39 | 24.26213 | 37.95422 | 35936 ft | 457 kts | 320° |
| 2026-05-06 13:40 | 24.31459 | 37.91489 | 35718 ft | 455 kts | 320° |
| 2026-05-06 13:40 | 24.36682 | 37.87562 | 35768 ft | 456 kts | 320° |
| 2026-05-06 13:41 | 24.41880 | 37.83660 | 35765 ft | 456 kts | 320° |
| 2026-05-06 13:41 | 24.47111 | 37.79729 | 35787 ft | 456 kts | 320° |
| 2026-05-06 13:42 | 24.52338 | 37.75793 | 35775 ft | 455 kts | 320° |
| 2026-05-06 13:42 | 24.57559 | 37.71855 | 35787 ft | 456 kts | 320° |
| 2026-05-06 13:43 | 24.62754 | 37.67933 | 35788 ft | 456 kts | 320° |
| 2026-05-06 13:43 | 24.67978 | 37.63987 | 35793 ft | 456 kts | 320° |
| 2026-05-06 13:44 | 24.73198 | 37.60029 | 35805 ft | 455 kts | 320° |
| 2026-05-06 13:44 | 24.78421 | 37.56075 | 35814 ft | 455 kts | 320° |
| 2026-05-06 13:45 | 24.83642 | 37.52127 | 35825 ft | 456 kts | 320° |
| 2026-05-06 13:45 | 24.91427 | 37.46208 | 35837 ft | 455 kts | 320° |
| 2026-05-06 13:46 | 24.96640 | 37.42240 | 35838 ft | 455 kts | 320° |
| 2026-05-06 13:46 | 25.01851 | 37.38273 | 35853 ft | 455 kts | 320° |
| 2026-05-06 13:47 | 25.07065 | 37.34298 | 35863 ft | 456 kts | 320° |
| 2026-05-06 13:47 | 25.12245 | 37.30357 | 35863 ft | 455 kts | 320° |
| 2026-05-06 13:48 | 25.17462 | 37.26386 | 35875 ft | 455 kts | 320° |
| 2026-05-06 13:48 | 25.22670 | 37.22406 | 35871 ft | 455 kts | 320° |
| 2026-05-06 13:49 | 25.27877 | 37.18416 | 35861 ft | 455 kts | 320° |
| 2026-05-06 13:49 | 25.33045 | 37.14454 | 35881 ft | 455 kts | 320° |
| 2026-05-06 13:50 | 25.38253 | 37.10458 | 35882 ft | 456 kts | 320° |
| 2026-05-06 13:50 | 25.43463 | 37.06459 | 35886 ft | 456 kts | 320° |
| 2026-05-06 13:51 | 25.48666 | 37.02458 | 35890 ft | 455 kts | 320° |
| 2026-05-06 13:51 | 25.53834 | 36.98479 | 35892 ft | 455 kts | 320° |
| 2026-05-06 13:52 | 25.59039 | 36.94478 | 35893 ft | 455 kts | 320° |
| 2026-05-06 13:52 | 25.64239 | 36.90476 | 35893 ft | 455 kts | 320° |
| 2026-05-06 13:53 | 25.69438 | 36.86458 | 35890 ft | 455 kts | 320° |
| 2026-05-06 13:53 | 25.74598 | 36.82467 | 35892 ft | 455 kts | 320° |
| 2026-05-06 13:54 | 25.79791 | 36.78453 | 35895 ft | 455 kts | 320° |
| 2026-05-06 13:54 | 25.84983 | 36.74434 | 35903 ft | 455 kts | 320° |
| 2026-05-06 13:55 | 25.90172 | 36.70417 | 35910 ft | 455 kts | 320° |
| 2026-05-06 13:55 | 25.95339 | 36.66414 | 35920 ft | 455 kts | 320° |
| 2026-05-06 13:56 | 26.00524 | 36.62378 | 35927 ft | 455 kts | 320° |
| 2026-05-06 13:56 | 26.05709 | 36.58340 | 35931 ft | 455 kts | 320° |
| 2026-05-06 13:57 | 26.10888 | 36.54306 | 35931 ft | 455 kts | 320° |
| 2026-05-06 13:57 | 26.16030 | 36.50293 | 35930 ft | 454 kts | 320° |
| 2026-05-06 13:58 | 26.20675 | 36.45656 | 35936 ft | 447 kts | 309° |
| 2026-05-06 13:58 | 26.24992 | 36.40687 | 35938 ft | 446 kts | 309° |
| 2026-05-06 13:59 | 26.29310 | 36.35722 | 35938 ft | 446 kts | 309° |
| 2026-05-06 13:59 | 26.33626 | 36.30754 | 35938 ft | 446 kts | 309° |
| 2026-05-06 14:00 | 26.37910 | 36.25804 | 35942 ft | 447 kts | 309° |
| 2026-05-06 14:00 | 26.42221 | 36.20820 | 35944 ft | 446 kts | 309° |
| 2026-05-06 14:01 | 26.46530 | 36.15831 | 35944 ft | 446 kts | 309° |
| 2026-05-06 14:01 | 26.50837 | 36.10847 | 35943 ft | 446 kts | 309° |
| 2026-05-06 14:02 | 26.55110 | 36.05893 | 35941 ft | 446 kts | 309° |
| 2026-05-06 14:02 | 26.59403 | 36.00903 | 35935 ft | 445 kts | 309° |
| 2026-05-06 14:03 | 26.63700 | 35.95908 | 35941 ft | 445 kts | 309° |
| 2026-05-06 14:03 | 26.67989 | 35.90913 | 35944 ft | 446 kts | 309° |
| 2026-05-06 14:04 | 26.72283 | 35.85912 | 35947 ft | 445 kts | 309° |
| 2026-05-06 14:04 | 26.76539 | 35.80943 | 35951 ft | 445 kts | 309° |
| 2026-05-06 14:05 | 26.80825 | 35.75930 | 35957 ft | 446 kts | 309° |
| 2026-05-06 14:05 | 26.85115 | 35.70916 | 35962 ft | 446 kts | 309° |
| 2026-05-06 14:06 | 26.89404 | 35.65896 | 35964 ft | 446 kts | 309° |
| 2026-05-06 14:06 | 26.93662 | 35.60907 | 35965 ft | 446 kts | 309° |
| 2026-05-06 14:07 | 26.97949 | 35.55882 | 35965 ft | 445 kts | 309° |
| 2026-05-06 14:07 | 27.02227 | 35.50862 | 35969 ft | 445 kts | 309° |
| 2026-05-06 14:08 | 27.06500 | 35.45830 | 35971 ft | 445 kts | 309° |
| 2026-05-06 14:08 | 27.10736 | 35.40832 | 35971 ft | 445 kts | 309° |
| 2026-05-06 14:09 | 27.15002 | 35.35805 | 35971 ft | 444 kts | 309° |
| 2026-05-06 14:09 | 27.19263 | 35.30781 | 35975 ft | 444 kts | 309° |
| 2026-05-06 14:10 | 27.23521 | 35.25750 | 35977 ft | 444 kts | 309° |
| 2026-05-06 14:10 | 27.27751 | 35.20747 | 35984 ft | 444 kts | 309° |
| 2026-05-06 14:11 | 27.32005 | 35.15712 | 35975 ft | 444 kts | 309° |
| 2026-05-06 14:11 | 27.36256 | 35.10677 | 35983 ft | 443 kts | 309° |
| 2026-05-06 14:12 | 27.40472 | 35.05673 | 35984 ft | 444 kts | 309° |
| 2026-05-06 14:12 | 27.44710 | 35.00635 | 35988 ft | 443 kts | 309° |
| 2026-05-06 14:13 | 27.48939 | 34.95592 | 35987 ft | 443 kts | 309° |
| 2026-05-06 14:13 | 27.53214 | 34.90587 | 35985 ft | 444 kts | 311° |
| 2026-05-06 14:14 | 27.57722 | 34.85823 | 35989 ft | 445 kts | 314° |
| 2026-05-06 14:14 | 27.62271 | 34.81173 | 35989 ft | 444 kts | 314° |
| 2026-05-06 14:15 | 27.66806 | 34.76445 | 35985 ft | 444 kts | 313° |
| 2026-05-06 14:15 | 27.71300 | 34.71675 | 35987 ft | 443 kts | 313° |
| 2026-05-06 14:16 | 27.75781 | 34.66900 | 35983 ft | 443 kts | 313° |
| 2026-05-06 14:16 | 27.80226 | 34.62162 | 35986 ft | 442 kts | 313° |
| 2026-05-06 14:17 | 27.84710 | 34.57393 | 35982 ft | 443 kts | 313° |
| 2026-05-06 14:17 | 27.89196 | 34.52626 | 35982 ft | 442 kts | 313° |
| 2026-05-06 14:18 | 27.93671 | 34.47856 | 35982 ft | 442 kts | 313° |
| 2026-05-06 14:18 | 27.98146 | 34.43084 | 35981 ft | 442 kts | 313° |
| 2026-05-06 14:19 | 28.02225 | 34.37996 | 35982 ft | 439 kts | 306° |
| 2026-05-06 14:19 | 28.06096 | 34.32652 | 35983 ft | 439 kts | 306° |
| 2026-05-06 14:20 | 28.09960 | 34.27303 | 35986 ft | 439 kts | 306° |
| 2026-05-06 14:20 | 28.13820 | 34.21954 | 35982 ft | 439 kts | 306° |
| 2026-05-06 14:21 | 28.17684 | 34.16599 | 35986 ft | 438 kts | 306° |
| 2026-05-06 14:21 | 28.21504 | 34.11282 | 35983 ft | 438 kts | 306° |
| 2026-05-06 14:22 | 28.25354 | 34.05927 | 35995 ft | 438 kts | 306° |
| 2026-05-06 14:22 | 28.29200 | 34.00576 | 35990 ft | 438 kts | 306° |
| 2026-05-06 14:23 | 28.33042 | 33.95214 | 35980 ft | 437 kts | 306° |
| 2026-05-06 14:23 | 28.36880 | 33.89855 | 35984 ft | 438 kts | 306° |
| 2026-05-06 14:24 | 28.40719 | 33.84486 | 35993 ft | 438 kts | 306° |
| 2026-05-06 14:24 | 28.44532 | 33.79144 | 35989 ft | 437 kts | 306° |
| 2026-05-06 14:25 | 28.48362 | 33.73771 | 35985 ft | 438 kts | 306° |
| 2026-05-06 14:25 | 28.52187 | 33.68392 | 35995 ft | 438 kts | 306° |
| 2026-05-06 14:26 | 28.56021 | 33.63013 | 35993 ft | 438 kts | 306° |
| 2026-05-06 14:26 | 28.59858 | 33.57638 | 35998 ft | 437 kts | 306° |
| 2026-05-06 14:27 | 28.63678 | 33.52283 | 35604 ft | 434 kts | 306° |
| 2026-05-06 14:27 | 28.65554 | 33.49640 | 35333 ft | 435 kts | 306° |
| 2026-05-06 14:27 | 28.67460 | 33.46954 | 35060 ft | 436 kts | 306° |
| 2026-05-06 14:28 | 28.69366 | 33.44269 | 34785 ft | 437 kts | 306° |
| 2026-05-06 14:28 | 28.71272 | 33.41575 | 34511 ft | 437 kts | 306° |
| 2026-05-06 14:28 | 28.73176 | 33.38874 | 34236 ft | 437 kts | 306° |
| 2026-05-06 14:28 | 28.75079 | 33.36172 | 33968 ft | 437 kts | 306° |
| 2026-05-06 14:29 | 28.76981 | 33.33472 | 33691 ft | 437 kts | 306° |
| 2026-05-06 14:29 | 28.78892 | 33.30767 | 33401 ft | 438 kts | 306° |
| 2026-05-06 14:29 | 28.80806 | 33.28063 | 33138 ft | 439 kts | 306° |
| 2026-05-06 14:29 | 28.82725 | 33.25354 | 32862 ft | 440 kts | 306° |
| 2026-05-06 14:30 | 28.84623 | 33.22671 | 32590 ft | 440 kts | 306° |
| 2026-05-06 14:30 | 28.86544 | 33.19949 | 32312 ft | 441 kts | 306° |
| 2026-05-06 14:30 | 28.88465 | 33.17213 | 32036 ft | 441 kts | 306° |
| 2026-05-06 14:30 | 28.90376 | 33.14493 | 31516 ft | 437 kts | 306° |
| 2026-05-06 14:31 | 28.92271 | 33.11797 | 30941 ft | 434 kts | 306° |
| 2026-05-06 14:31 | 28.94153 | 33.09122 | 30373 ft | 430 kts | 306° |
| 2026-05-06 14:31 | 28.96023 | 33.06465 | 29802 ft | 427 kts | 306° |
| 2026-05-06 14:31 | 28.97874 | 33.03830 | 29234 ft | 424 kts | 306° |
| 2026-05-06 14:32 | 28.99651 | 33.01295 | 28695 ft | 421 kts | 306° |
| 2026-05-06 14:32 | 29.01467 | 32.98697 | 28137 ft | 417 kts | 306° |
| 2026-05-06 14:32 | 29.03265 | 32.96122 | 27591 ft | 414 kts | 306° |
| 2026-05-06 14:32 | 29.05058 | 32.93556 | 27038 ft | 411 kts | 307° |
| 2026-05-06 14:33 | 29.06835 | 32.91018 | 26486 ft | 408 kts | 307° |
| 2026-05-06 14:33 | 29.08604 | 32.88494 | 25942 ft | 405 kts | 307° |
| 2026-05-06 14:33 | 29.10363 | 32.85985 | 25417 ft | 403 kts | 307° |
| 2026-05-06 14:33 | 29.12105 | 32.83489 | 24914 ft | 401 kts | 307° |
| 2026-05-06 14:34 | 29.13836 | 32.81007 | 24430 ft | 398 kts | 307° |
| 2026-05-06 14:34 | 29.15555 | 32.78541 | 24090 ft | 395 kts | 307° |
| 2026-05-06 14:34 | 29.17268 | 32.76084 | 23799 ft | 394 kts | 307° |
| 2026-05-06 14:34 | 29.18969 | 32.73638 | 23338 ft | 392 kts | 307° |
| 2026-05-06 14:35 | 29.20641 | 32.71235 | 22894 ft | 390 kts | 307° |
| 2026-05-06 14:35 | 29.22323 | 32.68822 | 22457 ft | 387 kts | 307° |
| 2026-05-06 14:35 | 29.23998 | 32.66423 | 22012 ft | 384 kts | 307° |
| 2026-05-06 14:35 | 29.25656 | 32.64039 | 21562 ft | 381 kts | 307° |
| 2026-05-06 14:36 | 29.27300 | 32.61666 | 21102 ft | 379 kts | 307° |
| 2026-05-06 14:36 | 29.28931 | 32.59312 | 20634 ft | 376 kts | 307° |
| 2026-05-06 14:36 | 29.30546 | 32.56973 | 20155 ft | 373 kts | 307° |
| 2026-05-06 14:36 | 29.32149 | 32.54644 | 19676 ft | 371 kts | 307° |
| 2026-05-06 14:37 | 29.33733 | 32.52334 | 19199 ft | 367 kts | 307° |
| 2026-05-06 14:37 | 29.35303 | 32.50037 | 18687 ft | 365 kts | 307° |
| 2026-05-06 14:37 | 29.36841 | 32.47786 | 18200 ft | 362 kts | 307° |
| 2026-05-06 14:37 | 29.38393 | 32.45518 | 17710 ft | 360 kts | 307° |
| 2026-05-06 14:38 | 29.39930 | 32.43276 | 17222 ft | 357 kts | 307° |
| 2026-05-06 14:38 | 29.41459 | 32.41051 | 16736 ft | 354 kts | 307° |
| 2026-05-06 14:38 | 29.42976 | 32.38840 | 16240 ft | 351 kts | 307° |
| 2026-05-06 14:38 | 29.44483 | 32.36638 | 15746 ft | 349 kts | 307° |
| 2026-05-06 14:39 | 29.45976 | 32.34454 | 15261 ft | 347 kts | 307° |
| 2026-05-06 14:39 | 29.47460 | 32.32285 | 14770 ft | 344 kts | 307° |
| 2026-05-06 14:39 | 29.48935 | 32.30128 | 14280 ft | 342 kts | 307° |
| 2026-05-06 14:39 | 29.50401 | 32.27983 | 13804 ft | 340 kts | 307° |
| 2026-05-06 14:40 | 29.51833 | 32.25883 | 13336 ft | 338 kts | 307° |
| 2026-05-06 14:40 | 29.53275 | 32.23764 | 12861 ft | 335 kts | 307° |
| 2026-05-06 14:40 | 29.54705 | 32.21662 | 12392 ft | 333 kts | 307° |
| 2026-05-06 14:40 | 29.56127 | 32.19577 | 12090 ft | 330 kts | 307° |
| 2026-05-06 14:41 | 29.57547 | 32.17494 | 12062 ft | 333 kts | 307° |
| 2026-05-06 14:41 | 29.58977 | 32.15395 | 12065 ft | 334 kts | 307° |
| 2026-05-06 14:41 | 29.60404 | 32.13295 | 12063 ft | 334 kts | 307° |
| 2026-05-06 14:41 | 29.61813 | 32.11221 | 12063 ft | 334 kts | 307° |
| 2026-05-06 14:42 | 29.63240 | 32.09119 | 12075 ft | 334 kts | 307° |
| 2026-05-06 14:42 | 29.64667 | 32.07016 | 12067 ft | 334 kts | 307° |
| 2026-05-06 14:42 | 29.66092 | 32.04913 | 12063 ft | 334 kts | 307° |
| 2026-05-06 14:42 | 29.67519 | 32.02808 | 12063 ft | 334 kts | 307° |
| 2026-05-06 14:43 | 29.68946 | 32.00704 | 12075 ft | 334 kts | 307° |
| 2026-05-06 14:43 | 29.70376 | 31.98596 | 12066 ft | 334 kts | 307° |
| 2026-05-06 14:43 | 29.71804 | 31.96492 | 12063 ft | 334 kts | 307° |
| 2026-05-06 14:43 | 29.73231 | 31.94387 | 12063 ft | 334 kts | 307° |
| 2026-05-06 14:44 | 29.74658 | 31.92281 | 12075 ft | 334 kts | 307° |
| 2026-05-06 14:44 | 29.76083 | 31.90172 | 12066 ft | 334 kts | 307° |
| 2026-05-06 14:44 | 29.77389 | 31.87983 | 11930 ft | 330 kts | 295° |
| 2026-05-06 14:45 | 29.78732 | 31.83020 | 10956 ft | 326 kts | 285° |
| 2026-05-06 14:45 | 29.79314 | 31.80539 | 10797 ft | 315 kts | 285° |
| 2026-05-06 14:45 | 29.79873 | 31.78147 | 10664 ft | 304 kts | 285° |
| 2026-05-06 14:45 | 29.80410 | 31.75842 | 10519 ft | 294 kts | 285° |
| 2026-05-06 14:46 | 29.80935 | 31.73585 | 10232 ft | 290 kts | 285° |
| 2026-05-06 14:46 | 29.81453 | 31.71349 | 9879 ft | 289 kts | 285° |
| 2026-05-06 14:46 | 29.81969 | 31.69120 | 9542 ft | 288 kts | 285° |
| 2026-05-06 14:46 | 29.82484 | 31.66892 | 9186 ft | 287 kts | 284° |
| 2026-05-06 14:47 | 29.82819 | 31.64632 | 8824 ft | 286 kts | 276° |
| 2026-05-06 14:47 | 29.83001 | 31.62386 | 8484 ft | 286 kts | 275° |
| 2026-05-06 14:47 | 29.83168 | 31.60110 | 8148 ft | 284 kts | 275° |
| 2026-05-06 14:47 | 29.83330 | 31.57845 | 7822 ft | 283 kts | 275° |
| 2026-05-06 14:48 | 29.83489 | 31.55598 | 7494 ft | 280 kts | 275° |
| 2026-05-06 14:48 | 29.83646 | 31.53362 | 7155 ft | 280 kts | 275° |
| 2026-05-06 14:48 | 29.83801 | 31.51132 | 6829 ft | 278 kts | 275° |
| 2026-05-06 14:48 | 29.83952 | 31.48913 | 6511 ft | 277 kts | 275° |
| 2026-05-06 14:49 | 29.84102 | 31.46710 | 6197 ft | 275 kts | 275° |
| 2026-05-06 14:49 | 29.84248 | 31.44517 | 5884 ft | 273 kts | 275° |
| 2026-05-06 14:49 | 29.84392 | 31.42338 | 5544 ft | 272 kts | 275° |
| 2026-05-06 14:49 | 29.84534 | 31.40196 | 5213 ft | 271 kts | 275° |
| 2026-05-06 14:50 | 29.84674 | 31.38036 | 4889 ft | 269 kts | 275° |
| 2026-05-06 14:50 | 29.84811 | 31.35888 | 4563 ft | 269 kts | 275° |
| 2026-05-06 14:50 | 29.84949 | 31.33746 | 4224 ft | 268 kts | 275° |
| 2026-05-06 14:50 | 29.85207 | 31.31636 | 3965 ft | 263 kts | 290° |
| 2026-05-06 14:51 | 29.86176 | 31.29931 | 3855 ft | 251 kts | 320° |
| 2026-05-06 14:51 | 29.87670 | 31.29011 | 3743 ft | 240 kts | 342° |
| 2026-05-06 14:51 | 29.89254 | 31.28551 | 3610 ft | 229 kts | 358° |
| 2026-05-06 14:51 | 29.90795 | 31.28784 | 3487 ft | 220 kts | 13° |
| 2026-05-06 14:52 | 29.92247 | 31.29212 | 3376 ft | 211 kts | 14° |
| 2026-05-06 14:52 | 29.93634 | 31.29541 | 3259 ft | 201 kts | 7° |
| 2026-05-06 14:52 | 29.95000 | 31.29714 | 3078 ft | 196 kts | 5° |
| 2026-05-06 14:52 | 29.96350 | 31.29860 | 2824 ft | 194 kts | 5° |
| 2026-05-06 14:53 | 29.97691 | 31.30004 | 2720 ft | 194 kts | 5° |
| 2026-05-06 14:53 | 29.99036 | 31.30150 | 2710 ft | 195 kts | 5° |
| 2026-05-06 14:53 | 30.00376 | 31.30369 | 2698 ft | 195 kts | 17° |
| 2026-05-06 14:53 | 30.01561 | 31.31117 | 2702 ft | 196 kts | 41° |
| 2026-05-06 14:54 | 30.02487 | 31.32281 | 2575 ft | 196 kts | 49° |
| 2026-05-06 14:54 | 30.03345 | 31.33431 | 2370 ft | 183 kts | 47° |
| 2026-05-06 14:54 | 30.04145 | 31.34496 | 2125 ft | 174 kts | 48° |
| 2026-05-06 14:54 | 30.04898 | 31.35500 | 1922 ft | 156 kts | 47° |
| 2026-05-06 14:55 | 30.05581 | 31.36408 | 1710 ft | 146 kts | 47° |
| 2026-05-06 14:55 | 30.06238 | 31.37280 | 1519 ft | 142 kts | 47° |
| 2026-05-06 14:55 | 30.06883 | 31.38138 | 1335 ft | 141 kts | 47° |
| 2026-05-06 14:55 | 30.07523 | 31.38989 | 1148 ft | 140 kts | 47° |
| 2026-05-06 14:56 | 30.08163 | 31.39837 | 961 ft | 140 kts | 47° |
| 2026-05-06 14:56 | 30.08803 | 31.40681 | 781 ft | 140 kts | 47° |
| 2026-05-06 14:56 | 30.09442 | 31.41523 | 601 ft | 139 kts | 48° |
| 2026-05-06 14:56 | 30.10068 | 31.42372 | 459 ft | 135 kts | 48° |
| 2026-05-06 14:57 | 30.10591 | 31.43071 | 449 ft | 91 kts | 49° |
| 2026-05-06 14:57 | 30.10892 | 31.43471 | 448 ft | 43 kts | 49° |
| 2026-05-06 14:57 | 30.11040 | 31.43669 | 448 ft | 32 kts | 49° |
| 2026-05-06 14:57 | 30.11175 | 31.43847 | 449 ft | 23 kts | 48° |
| 2026-05-06 14:58 | 30.11302 | 31.43962 | 449 ft | 24 kts | 31° |
| 2026-05-06 14:58 | 30.11454 | 31.44047 | 449 ft | 24 kts | 24° |
| 2026-05-06 14:58 | 30.11549 | 31.44096 | 449 ft | 2 kts | 24° |
| 2026-05-06 14:58 | 30.11575 | 31.44106 | 449 ft | 6 kts | 15° |
| 2026-05-06 14:59 | 30.11622 | 31.44099 | 449 ft | 8 kts | 335° |
| 2026-05-06 14:59 | 30.11651 | 31.44042 | 450 ft | 10 kts | 263° |
| 2026-05-06 14:59 | 30.11607 | 31.43969 | 450 ft | 12 kts | 229° |
| 2026-05-06 14:59 | 30.11544 | 31.43886 | 450 ft | 15 kts | 229° |
| 2026-05-06 15:00 | 30.11469 | 31.43785 | 450 ft | 18 kts | 229° |
| 2026-05-06 15:00 | 30.11380 | 31.43668 | 450 ft | 21 kts | 229° |
| 2026-05-06 15:00 | 30.11283 | 31.43539 | 450 ft | 18 kts | 228° |
| 2026-05-06 15:00 | 30.11235 | 31.43459 | 450 ft | 10 kts | 260° |
| 2026-05-06 15:01 | 30.11275 | 31.43390 | 450 ft | 12 kts | 318° |
| 2026-05-06 15:01 | 30.11344 | 31.43321 | 451 ft | 14 kts | 319° |
| 2026-05-06 15:01 | 30.11428 | 31.43238 | 449 ft | 18 kts | 319° |
| 2026-05-06 15:01 | 30.11541 | 31.43124 | 430 ft | 21 kts | 319° |
| 2026-05-06 15:02 | 30.11644 | 31.43020 | 426 ft | 20 kts | 320° |
| 2026-05-06 15:02 | 30.11752 | 31.42913 | 412 ft | 15 kts | 320° |
| 2026-05-06 15:02 | 30.11831 | 31.42835 | 407 ft | 19 kts | 319° |
| 2026-05-06 15:02 | 30.11923 | 31.42742 | 397 ft | 12 kts | 319° |
| 2026-05-06 15:03 | 30.12002 | 31.42664 | 389 ft | 19 kts | 319° |
| 2026-05-06 15:03 | 30.12113 | 31.42554 | 388 ft | 22 kts | 319° |
| 2026-05-06 15:03 | 30.12196 | 31.42449 | 389 ft | 16 kts | 288° |
| 2026-05-06 15:03 | 30.12148 | 31.42330 | 389 ft | 18 kts | 229° |
| 2026-05-06 15:04 | 30.12057 | 31.42210 | 389 ft | 21 kts | 229° |
| 2026-05-06 15:04 | 30.11953 | 31.42073 | 389 ft | 24 kts | 229° |
| 2026-05-06 15:04 | 30.11836 | 31.41920 | 389 ft | 27 kts | 229° |
| 2026-05-06 15:04 | 30.11717 | 31.41763 | 389 ft | 24 kts | 228° |
| 2026-05-06 15:05 | 30.11602 | 31.41611 | 389 ft | 26 kts | 229° |
| 2026-05-06 15:05 | 30.11478 | 31.41446 | 389 ft | 28 kts | 229° |
| 2026-05-06 15:05 | 30.11348 | 31.41275 | 389 ft | 27 kts | 229° |
| 2026-05-06 15:05 | 30.11232 | 31.41120 | 389 ft | 24 kts | 229° |
| 2026-05-06 15:06 | 30.11122 | 31.40974 | 389 ft | 22 kts | 229° |
| 2026-05-06 15:06 | 30.11058 | 31.40888 | 389 ft | 10 kts | 229° |
| 2026-05-06 15:06 | 30.11061 | 31.40810 | 387 ft | 12 kts | 303° |
| 2026-05-06 15:06 | 30.11054 | 31.40724 | 379 ft | 16 kts | 233° |
| 2026-05-06 15:07 | 30.10976 | 31.40620 | 379 ft | 19 kts | 228° |
| 2026-05-06 15:07 | 30.10883 | 31.40494 | 379 ft | 22 kts | 229° |
| 2026-05-06 15:07 | 30.10781 | 31.40359 | 383 ft | 23 kts | 229° |
| 2026-05-06 15:07 | 30.10678 | 31.40221 | 386 ft | 24 kts | 229° |
| 2026-05-06 15:08 | 30.10567 | 31.40074 | 379 ft | 22 kts | 229° |
| 2026-05-06 15:08 | 30.10498 | 31.39982 | 379 ft | 7 kts | 230° |
| 2026-05-06 15:08 | 30.10478 | 31.39922 | 379 ft | 10 kts | 272° |
| 2026-05-06 15:08 | 30.10530 | 31.39850 | 375 ft | 15 kts | 340° |
| 2026-05-06 15:09 | 30.10647 | 31.39813 | 371 ft | 15 kts | 346° |
| 2026-05-06 15:09 | 30.10728 | 31.39789 | 372 ft | 13 kts | 345° |
| 2026-05-06 15:09 | 30.10801 | 31.39766 | 370 ft | 6 kts | 341° |
| 2026-05-06 15:09 | 30.10812 | 31.39717 | 371 ft | 5 kts | 258° |
| 2026-05-06 15:10 | 30.10802 | 31.39679 | 370 ft | 3 kts | 255° |
| 2026-05-06 15:10 | 30.10801 | 31.39670 | 370 ft | 0 kts | 256° |